createdAt,value
2023-09-13T00:01:39.552Z,19.76
2023-09-13T00:04:42.025Z,19.65
2023-09-13T00:07:44.495Z,19.60
2023-09-13T00:10:46.982Z,19.59
2023-09-13T00:13:49.428Z,19.52
2023-09-13T00:16:52.020Z,19.56
2023-09-13T00:19:57.570Z,19.58
2023-09-13T00:22:59.998Z,19.60
2023-09-13T00:26:04.211Z,19.52
2023-09-13T00:29:07.953Z,19.46
2023-09-13T00:32:10.331Z,19.40
2023-09-13T00:35:12.701Z,19.35
2023-09-13T00:38:15.070Z,19.37
2023-09-13T00:41:17.536Z,19.47
2023-09-13T00:44:19.968Z,19.41
2023-09-13T00:47:22.651Z,19.37
2023-09-13T00:50:25.156Z,19.31
2023-09-13T00:53:27.928Z,19.19
2023-09-13T00:56:30.364Z,19.17
2023-09-13T00:59:32.760Z,19.19
2023-09-13T01:02:35.233Z,19.14
2023-09-13T01:05:37.680Z,19.10
2023-09-13T01:08:42.801Z,19.16
2023-09-13T01:11:46.162Z,19.22
2023-09-13T01:14:48.560Z,19.29
2023-09-13T01:18:12.649Z,19.39
2023-09-13T01:21:33.728Z,19.45
2023-09-13T01:25:03.145Z,19.19
2023-09-13T01:28:37.218Z,19.11
2023-09-13T01:31:39.672Z,19.09
2023-09-13T01:34:42.050Z,18.96
2023-09-13T01:37:44.478Z,19.01
2023-09-13T01:40:46.991Z,19.00
2023-09-13T01:43:51.926Z,19.03
2023-09-13T01:46:54.500Z,19.04
2023-09-13T01:49:57.273Z,19.09
2023-09-13T01:53:03.006Z,19.17
2023-09-13T01:56:05.394Z,19.24
2023-09-13T01:59:07.822Z,19.17
2023-09-13T02:02:10.345Z,19.10
2023-09-13T02:05:12.794Z,19.02
2023-09-13T02:08:15.207Z,18.91
2023-09-13T02:11:17.586Z,18.84
2023-09-13T02:14:19.998Z,18.98
2023-09-13T02:17:22.445Z,18.94
2023-09-13T02:20:24.854Z,18.98
2023-09-13T02:23:28.364Z,18.96
2023-09-13T02:26:32.375Z,18.92
2023-09-13T02:29:35.069Z,18.93
2023-09-13T02:32:37.763Z,18.88
2023-09-13T02:35:40.328Z,18.83
2023-09-13T02:38:42.829Z,18.84
2023-09-13T02:41:45.274Z,18.82
2023-09-13T02:44:47.751Z,18.72
2023-09-13T02:47:50.186Z,18.64
2023-09-13T02:50:53.097Z,18.69
2023-09-13T02:53:55.544Z,18.79
2023-09-13T02:56:58.004Z,18.75
2023-09-13T03:00:07.081Z,18.70
2023-09-13T03:03:14.180Z,18.64
2023-09-13T03:06:17.038Z,18.54
2023-09-13T03:09:20.223Z,18.42
2023-09-13T03:12:22.693Z,18.34
2023-09-13T03:15:26.448Z,18.33
2023-09-13T03:18:28.976Z,18.22
2023-09-13T03:21:31.514Z,18.21
2023-09-13T03:24:34.116Z,18.30
2023-09-13T03:27:36.964Z,18.28
2023-09-13T03:30:39.709Z,18.37
2023-09-13T03:33:42.455Z,18.23
2023-09-13T03:36:45.496Z,18.13
2023-09-13T03:39:48.067Z,17.97
2023-09-13T03:42:50.983Z,17.97
2023-09-13T03:45:53.750Z,17.99
2023-09-13T03:48:56.474Z,17.92
2023-09-13T03:51:58.991Z,17.78
2023-09-13T03:55:01.526Z,17.72
2023-09-13T03:58:04.409Z,17.59
2023-09-13T04:01:07.732Z,17.68
2023-09-13T04:04:10.420Z,17.65
2023-09-13T04:07:13.006Z,17.65
2023-09-13T04:10:15.510Z,18.17
2023-09-13T04:13:18.375Z,18.43
2023-09-13T04:16:21.161Z,18.58
2023-09-13T04:19:23.710Z,18.54
2023-09-13T04:22:26.319Z,18.50
2023-09-13T04:25:29.898Z,18.67
2023-09-13T04:28:34.740Z,18.68
2023-09-13T04:31:38.987Z,18.62
2023-09-13T04:34:41.622Z,18.53
2023-09-13T04:37:44.471Z,18.56
2023-09-13T04:40:47.256Z,18.70
2023-09-13T04:43:50.132Z,18.72
2023-09-13T04:46:55.350Z,18.80
2023-09-13T04:49:57.969Z,18.97
2023-09-13T04:53:00.350Z,18.87
2023-09-13T04:56:04.075Z,18.70
2023-09-13T04:59:12.334Z,18.62
2023-09-13T05:02:15.931Z,18.95
2023-09-13T05:05:19.955Z,18.88
2023-09-13T05:08:22.355Z,18.94
2023-09-13T05:11:24.849Z,18.88
2023-09-13T05:14:27.416Z,18.87
2023-09-13T05:17:31.419Z,18.85
2023-09-13T05:20:34.215Z,18.72
2023-09-13T05:23:36.586Z,18.91
2023-09-13T05:26:39.107Z,18.96
2023-09-13T05:29:41.554Z,19.01
2023-09-13T05:32:43.975Z,19.24
2023-09-13T05:35:46.391Z,19.42
2023-09-13T05:38:49.970Z,19.37
2023-09-13T05:41:54.963Z,19.36
2023-09-13T05:44:57.380Z,19.45
2023-09-13T05:48:01.070Z,19.61
2023-09-13T05:51:03.799Z,19.70
2023-09-13T05:54:06.347Z,19.87
2023-09-13T05:57:08.726Z,19.85
2023-09-13T06:00:12.427Z,19.93
2023-09-13T06:03:16.920Z,19.93
2023-09-13T06:06:19.481Z,19.99
2023-09-13T06:09:23.334Z,20.08
2023-09-13T06:12:25.933Z,20.24
2023-09-13T06:15:28.517Z,20.45
2023-09-13T06:18:30.941Z,20.55
2023-09-13T06:21:33.915Z,20.71
2023-09-13T06:24:36.811Z,20.77
2023-09-13T06:27:39.249Z,20.91
2023-09-13T06:30:56.946Z,21.07
2023-09-13T07:45:03.852Z,25.01
2023-09-13T07:48:06.590Z,25.23
2023-09-13T07:51:09.155Z,25.32
2023-09-13T07:54:11.978Z,25.48
2023-09-13T07:57:14.673Z,25.63
2023-09-13T08:00:17.311Z,25.75
2023-09-13T08:03:19.720Z,25.91
2023-09-13T08:06:23.672Z,26.04
2023-09-13T08:09:26.521Z,26.18
2023-09-13T08:12:28.877Z,26.20
2023-09-13T08:15:43.315Z,26.43
2023-09-13T08:18:51.730Z,26.53
2023-09-13T08:21:54.122Z,26.66
2023-09-13T08:24:56.507Z,26.74
2023-09-13T08:27:58.896Z,26.81
2023-09-13T08:31:02.502Z,27.01
2023-09-13T08:34:05.002Z,27.08
2023-09-13T08:37:07.426Z,27.17
2023-09-13T08:40:11.312Z,27.25
2023-09-13T08:43:13.824Z,27.42
2023-09-13T08:46:16.350Z,27.66
2023-09-13T08:49:18.774Z,27.75
2023-09-13T08:52:21.506Z,27.82
2023-09-13T08:55:24.219Z,27.90
2023-09-13T08:58:27.078Z,28.03
2023-09-13T09:01:29.648Z,28.20
2023-09-13T09:04:32.144Z,28.20
2023-09-13T09:07:34.615Z,28.26
2023-09-13T09:10:37.170Z,28.46
2023-09-13T09:13:40.188Z,28.63
2023-09-13T09:16:44.304Z,28.54
2023-09-13T09:19:46.931Z,28.71
2023-09-13T09:22:49.462Z,28.87
2023-09-13T09:25:52.532Z,28.95
2023-09-13T09:28:55.777Z,29.08
2023-09-13T09:31:59.559Z,29.25
2023-09-13T09:42:17.952Z,29.69
2023-09-13T09:45:21.018Z,29.86
2023-09-13T09:48:23.695Z,30.04
2023-09-13T09:51:26.107Z,30.10
2023-09-13T09:54:28.506Z,30.09
2023-09-13T09:57:31.216Z,30.22
2023-09-13T10:00:47.755Z,30.47
2023-09-13T10:03:52.265Z,30.63
2023-09-13T10:07:07.803Z,30.65
2023-09-13T10:10:12.991Z,30.86
2023-09-13T10:13:15.987Z,31.04
2023-09-13T10:16:18.859Z,31.07
2023-09-13T10:19:21.350Z,30.98
2023-09-13T10:22:26.690Z,31.06
2023-09-13T10:25:31.340Z,31.39
2023-09-13T10:28:36.276Z,31.60
2023-09-13T10:31:42.757Z,31.76
2023-09-13T10:34:50.798Z,31.65
2023-09-13T10:37:53.814Z,31.81
2023-09-13T10:41:06.913Z,31.85
2023-09-13T10:44:10.488Z,32.06
2023-09-13T10:47:13.138Z,31.88
2023-09-13T10:50:16.356Z,31.36
2023-09-13T10:53:18.963Z,30.84
2023-09-13T10:56:21.382Z,30.91
2023-09-13T10:59:23.896Z,31.57
2023-09-13T11:02:27.586Z,32.11
2023-09-13T11:05:30.045Z,32.18
2023-09-13T11:08:36.602Z,32.44
2023-09-13T11:11:39.089Z,32.33
2023-09-13T11:14:48.337Z,32.42
2023-09-13T11:18:11.681Z,32.56
2023-09-13T11:21:26.489Z,33.09
2023-09-13T11:24:55.757Z,33.19
2023-09-13T11:28:06.274Z,33.47
2023-09-13T11:31:09.626Z,33.70
2023-09-13T11:34:13.532Z,33.78
2023-09-13T11:37:16.001Z,33.92
2023-09-13T11:40:18.560Z,34.10
2023-09-13T11:43:33.734Z,33.97
2023-09-13T11:46:37.805Z,33.77
2023-09-13T11:49:43.524Z,33.52
2023-09-13T11:53:14.746Z,34.01
2023-09-13T11:59:43.217Z,34.53
2023-09-13T12:02:46.499Z,34.74
2023-09-13T12:06:07.568Z,34.52
2023-09-13T12:09:20.319Z,34.39
2023-09-13T12:12:33.823Z,34.69
2023-09-13T12:19:11.964Z,34.89
2023-09-13T12:22:15.715Z,34.86
2023-09-13T12:25:18.444Z,34.89
2023-09-13T12:28:28.078Z,35.12
2023-09-13T12:31:30.624Z,35.34
2023-09-13T12:34:33.089Z,35.15
2023-09-13T12:37:35.556Z,35.33
2023-09-13T12:40:38.115Z,35.24
2023-09-13T12:43:43.732Z,35.32
2023-09-13T12:46:46.383Z,35.43
2023-09-13T12:49:51.372Z,35.49
2023-09-13T12:52:53.982Z,35.36
2023-09-13T12:55:56.439Z,35.34
2023-09-13T12:58:59.136Z,35.25
2023-09-13T13:02:01.616Z,35.36
2023-09-13T13:05:04.776Z,35.33
2023-09-13T13:08:07.622Z,35.33
2023-09-13T13:11:10.947Z,35.04
2023-09-13T13:14:18.600Z,35.41
2023-09-13T13:17:23.692Z,35.84
2023-09-13T13:20:27.924Z,35.95
2023-09-13T13:23:30.458Z,35.71
2023-09-13T13:26:32.843Z,35.55
2023-09-13T13:29:36.329Z,35.57
2023-09-13T13:32:39.682Z,34.99
2023-09-13T13:35:42.104Z,34.63
2023-09-13T13:38:44.463Z,34.55
2023-09-13T13:41:46.875Z,34.18
2023-09-13T13:44:49.316Z,33.84
2023-09-13T13:47:51.691Z,33.58
2023-09-13T13:50:54.122Z,33.31
2023-09-13T13:53:56.510Z,33.13
2023-09-13T13:57:00.988Z,33.14
2023-09-13T14:00:03.638Z,32.89
2023-09-13T14:03:14.705Z,32.98
2023-09-13T14:06:17.182Z,32.70
2023-09-13T14:09:19.623Z,32.44
2023-09-13T14:12:22.066Z,32.63
2023-09-13T14:15:24.489Z,32.37
2023-09-13T14:18:27.064Z,32.29
2023-09-13T14:21:29.571Z,32.25
2023-09-13T14:24:32.042Z,32.16
2023-09-13T14:27:44.521Z,31.89
2023-09-13T14:30:59.747Z,31.83
2023-09-13T14:34:03.962Z,31.69
2023-09-13T14:37:09.574Z,31.62
2023-09-13T14:40:11.978Z,31.50
2023-09-13T14:43:14.387Z,31.27
2023-09-13T14:46:17.091Z,31.29
2023-09-13T14:49:21.509Z,31.05
2023-09-13T14:52:25.292Z,31.31
2023-09-13T14:55:27.780Z,31.47
2023-09-13T14:58:30.178Z,31.44
2023-09-13T15:01:32.654Z,31.52
2023-09-13T15:04:35.048Z,31.60
2023-09-13T15:07:38.208Z,31.53
2023-09-13T15:10:40.867Z,31.46
2023-09-13T15:13:44.423Z,31.36
2023-09-13T15:16:46.901Z,31.17
2023-09-13T15:19:49.325Z,31.02
2023-09-13T15:22:51.739Z,30.84
2023-09-13T15:25:54.119Z,30.65
2023-09-13T15:28:58.215Z,30.64
2023-09-13T15:35:06.485Z,30.53
2023-09-13T15:38:09.352Z,30.44
2023-09-13T15:41:18.201Z,30.32
2023-09-13T15:44:20.717Z,30.30
2023-09-13T15:47:23.676Z,30.18
2023-09-13T15:50:26.155Z,30.21
2023-09-13T15:53:28.627Z,30.08
2023-09-13T15:56:32.734Z,30.08
2023-09-13T15:59:36.095Z,29.89
2023-09-13T16:02:38.627Z,29.84
2023-09-13T16:05:43.367Z,29.73
2023-09-13T16:08:46.036Z,29.53
2023-09-13T16:11:49.038Z,29.44
2023-09-13T16:14:51.562Z,29.25
2023-09-13T16:17:53.999Z,29.28
2023-09-13T16:20:56.423Z,29.28
2023-09-13T16:23:58.818Z,29.20
2023-09-13T16:27:01.179Z,29.07
2023-09-13T16:30:04.877Z,28.97
2023-09-13T16:33:07.301Z,28.81
2023-09-13T16:36:09.717Z,28.75
2023-09-13T16:39:14.126Z,28.68
2023-09-13T16:42:16.596Z,28.52
2023-09-13T16:45:23.784Z,28.44
2023-09-13T16:48:34.315Z,28.31
2023-09-13T16:51:37.652Z,28.21
2023-09-13T16:54:40.762Z,28.15
2023-09-13T16:57:43.235Z,28.00
2023-09-13T17:00:45.882Z,27.99
2023-09-13T17:03:49.927Z,27.92
2023-09-13T17:06:52.834Z,27.83
2023-09-13T17:09:55.347Z,27.68
2023-09-13T17:12:57.865Z,27.45
2023-09-13T17:16:00.394Z,27.34
2023-09-13T17:19:03.212Z,27.19
2023-09-13T17:22:05.810Z,27.09
2023-09-13T17:25:08.532Z,27.03
2023-09-13T17:28:10.999Z,26.94
2023-09-13T17:31:13.735Z,26.88
2023-09-13T17:34:16.190Z,26.84
2023-09-13T17:37:19.421Z,26.71
2023-09-13T17:40:21.914Z,26.43
2023-09-13T17:43:24.388Z,26.27
2023-09-13T17:46:26.954Z,26.11
2023-09-13T17:49:29.389Z,26.06
2023-09-13T17:52:31.785Z,26.01
2023-09-13T17:55:34.302Z,25.97
2023-09-13T17:58:36.715Z,25.97
2023-09-13T18:01:41.346Z,25.83
2023-09-13T18:04:44.076Z,25.67
2023-09-13T18:07:47.449Z,25.57
2023-09-13T18:10:49.862Z,25.49
2023-09-13T18:13:52.236Z,25.45
2023-09-13T18:16:55.701Z,25.43
2023-09-13T18:19:58.738Z,25.39
2023-09-13T18:23:01.209Z,25.32
2023-09-13T18:26:06.333Z,25.31
2023-09-13T18:29:08.756Z,25.27
2023-09-13T18:32:11.362Z,25.16
2023-09-13T18:35:13.897Z,25.10
2023-09-13T18:38:17.191Z,25.00
2023-09-13T18:41:19.724Z,24.90
2023-09-13T18:44:22.449Z,24.91
2023-09-13T18:47:25.738Z,24.86
2023-09-13T18:50:28.253Z,24.77
2023-09-13T18:53:30.922Z,24.70
2023-09-13T18:56:33.319Z,24.54
2023-09-13T18:59:38.474Z,24.54
2023-09-13T19:02:41.370Z,24.45
2023-09-13T19:05:43.830Z,24.36
2023-09-13T19:08:50.977Z,24.43
2023-09-13T19:11:54.849Z,24.35
2023-09-13T19:14:57.297Z,24.32
2023-09-13T19:17:59.729Z,24.34
2023-09-13T19:21:02.462Z,24.30
2023-09-13T19:24:05.220Z,24.25
2023-09-13T19:27:07.647Z,24.23
2023-09-13T19:30:10.668Z,24.05
2023-09-13T19:33:13.039Z,23.87
2023-09-13T19:36:15.461Z,23.79
2023-09-13T19:39:17.885Z,23.80
2023-09-13T19:42:20.300Z,23.76
2023-09-13T19:45:22.804Z,23.72
2023-09-13T19:48:26.271Z,23.56
2023-09-13T19:51:30.126Z,23.44
2023-09-13T19:54:32.746Z,23.31
2023-09-13T19:57:35.199Z,23.17
2023-09-13T20:00:37.640Z,23.15
2023-09-13T20:03:40.362Z,23.17
2023-09-13T20:06:43.448Z,23.10
2023-09-13T20:09:46.219Z,23.06
2023-09-13T20:12:48.728Z,23.04
2023-09-13T20:15:51.216Z,23.05
2023-09-13T20:18:53.706Z,23.13
2023-09-13T20:21:56.215Z,23.21
2023-09-13T20:24:59.131Z,23.32
2023-09-13T20:28:03.795Z,23.41
2023-09-13T20:31:06.719Z,23.52
2023-09-13T20:34:09.274Z,23.59
2023-09-13T20:37:11.784Z,23.63
2023-09-13T20:40:14.210Z,23.70
2023-09-13T20:43:16.657Z,23.77
2023-09-13T20:46:19.296Z,23.91
2023-09-13T20:49:21.744Z,23.96
2023-09-13T20:52:24.142Z,23.98
2023-09-13T20:55:26.637Z,23.96
2023-09-13T20:58:29.060Z,23.96
2023-09-13T21:01:31.518Z,23.96
2023-09-13T21:04:34.112Z,23.91
2023-09-13T21:07:36.522Z,23.89
2023-09-13T21:10:39.717Z,23.86
2023-09-13T21:13:42.139Z,23.84
2023-09-13T21:16:44.550Z,23.79
2023-09-13T21:19:47.067Z,23.76
2023-09-13T21:22:49.493Z,23.72
2023-09-13T21:25:52.648Z,23.67
2023-09-13T21:28:55.019Z,23.69
2023-09-13T21:31:57.468Z,23.73
2023-09-13T21:35:03.099Z,23.79
2023-09-13T21:38:05.949Z,23.83
2023-09-13T21:41:08.975Z,23.84
2023-09-13T21:44:11.411Z,23.84
2023-09-13T21:47:13.836Z,23.86
2023-09-13T21:50:16.334Z,23.90
2023-09-13T21:53:18.897Z,23.91
2023-09-13T21:56:21.346Z,23.92
2023-09-13T21:59:23.831Z,23.90
2023-09-13T22:02:27.065Z,24.02
2023-09-13T22:05:31.451Z,23.96
2023-09-13T22:08:33.965Z,23.88
2023-09-13T22:11:36.507Z,23.87
2023-09-13T22:14:39.061Z,23.90
2023-09-13T22:17:41.628Z,23.89
2023-09-13T22:20:44.118Z,23.86
2023-09-13T22:23:46.596Z,23.84
2023-09-13T22:26:49.261Z,23.90
2023-09-13T22:29:52.110Z,23.88
2023-09-13T22:32:54.613Z,23.77
2023-09-13T22:35:58.012Z,23.76
2023-09-13T22:39:08.902Z,23.69
2023-09-13T22:42:12.312Z,23.63
2023-09-13T22:45:15.003Z,23.58
2023-09-13T22:48:17.489Z,23.59
2023-09-13T22:51:20.050Z,23.60
2023-09-13T22:54:22.903Z,23.60
2023-09-13T22:57:25.472Z,23.61
2023-09-13T23:00:28.147Z,23.62
2023-09-13T23:03:43.881Z,23.61
2023-09-13T23:06:48.307Z,23.53
2023-09-13T23:09:50.883Z,23.36
2023-09-13T23:12:54.897Z,23.42
2023-09-13T23:16:06.145Z,23.50
2023-09-13T23:19:09.415Z,23.53
2023-09-13T23:22:11.812Z,23.55
2023-09-13T23:25:14.189Z,23.67
2023-09-13T23:28:16.613Z,23.76
2023-09-13T23:31:19.486Z,23.88
2023-09-13T23:34:22.038Z,23.82
2023-09-13T23:37:24.463Z,23.82
2023-09-13T23:40:26.854Z,23.74
2023-09-13T23:43:30.332Z,23.76
2023-09-13T23:46:32.853Z,23.61
2023-09-13T23:49:35.321Z,23.49
2023-09-13T23:52:37.700Z,23.40
2023-09-13T23:55:40.361Z,23.48
2023-09-13T23:58:42.765Z,23.38
